KGNV 201653Z 31014G18KT 10SM OVC019 11/05 A2996 RMK AO2 SLP145 T01060050